createdAt,value
2023-04-07T00:02:11.590Z,13.56
2023-04-07T00:04:39.260Z,13.29
2023-04-07T00:07:07.380Z,13.14
2023-04-07T00:09:35.045Z,13.15
2023-04-07T00:12:02.943Z,13.25
2023-04-07T00:14:30.535Z,13.15
2023-04-07T00:16:58.377Z,13.28
2023-04-07T00:19:25.878Z,13.14
2023-04-07T00:21:54.369Z,13.10
2023-04-07T00:24:33.415Z,13.16
2023-04-07T00:27:02.747Z,13.21
2023-04-07T00:29:30.428Z,13.40
2023-04-07T00:31:58.289Z,13.21
2023-04-07T00:34:25.786Z,13.25
2023-04-07T00:36:53.918Z,13.43
2023-04-07T00:39:21.580Z,13.09
2023-04-07T00:41:49.696Z,13.23
2023-04-07T00:44:17.289Z,13.13
2023-04-07T00:46:47.709Z,12.99
2023-04-07T00:49:18.016Z,13.00
2023-04-07T00:51:46.922Z,13.14
2023-04-07T00:54:15.154Z,13.39
2023-04-07T00:56:43.868Z,13.13
2023-04-07T00:59:11.544Z,12.97
2023-04-07T01:01:39.425Z,13.15
2023-04-07T01:04:13.934Z,13.45
2023-04-07T01:06:48.783Z,12.97
2023-04-07T01:09:20.976Z,13.00
2023-04-07T01:11:58.547Z,13.18
2023-04-07T01:14:30.512Z,13.42
2023-04-07T01:17:07.614Z,13.02
2023-04-07T01:19:41.237Z,13.07
2023-04-07T01:22:28.953Z,13.14
2023-04-07T01:24:56.644Z,13.00
2023-04-07T01:27:27.846Z,12.81
2023-04-07T01:29:56.463Z,12.95
2023-04-07T01:32:27.538Z,13.23
2023-04-07T01:34:56.026Z,13.18
2023-04-07T01:37:26.834Z,13.25
2023-04-07T01:39:54.867Z,12.93
2023-04-07T01:42:22.982Z,12.86
2023-04-07T01:44:51.354Z,13.15
2023-04-07T01:47:19.440Z,13.28
2023-04-07T01:49:47.624Z,13.30
2023-04-07T01:52:15.838Z,13.41
2023-04-07T01:54:43.915Z,13.21
2023-04-07T01:57:11.764Z,13.05
2023-04-07T01:59:39.394Z,13.54
2023-04-07T02:02:07.709Z,13.16
2023-04-07T02:04:49.266Z,13.33
2023-04-07T02:07:22.645Z,13.54
2023-04-07T02:09:57.018Z,13.18
2023-04-07T02:12:26.627Z,13.10
2023-04-07T02:15:04.400Z,13.56
2023-04-07T02:17:35.371Z,13.57
2023-04-07T02:20:04.389Z,13.67
2023-04-07T02:22:32.276Z,13.54
2023-04-07T02:24:59.842Z,13.67
2023-04-07T02:27:28.274Z,13.37
2023-04-07T02:29:55.959Z,13.15
2023-04-07T02:32:25.082Z,13.21
2023-04-07T02:34:52.709Z,13.28
2023-04-07T02:37:20.465Z,13.08
2023-04-07T02:39:47.878Z,13.24
2023-04-07T02:42:15.707Z,13.21
2023-04-07T02:44:43.186Z,12.95
2023-04-07T02:47:11.478Z,13.00
2023-04-07T02:49:39.146Z,13.06
2023-04-07T02:52:07.352Z,13.04
2023-04-07T02:54:34.829Z,12.91
2023-04-07T02:57:02.738Z,13.05
2023-04-07T02:59:30.194Z,12.99
2023-04-07T03:01:58.311Z,12.95
2023-04-07T03:04:26.569Z,12.86
2023-04-07T03:06:54.684Z,12.77
2023-04-07T03:09:22.277Z,12.76
2023-04-07T03:11:50.336Z,12.53
2023-04-07T03:14:17.933Z,12.59
2023-04-07T03:16:48.624Z,12.53
2023-04-07T03:19:17.083Z,12.67
2023-04-07T03:21:48.474Z,12.79
2023-04-07T03:24:16.440Z,12.58
2023-04-07T03:26:46.551Z,12.53
2023-04-07T03:29:26.946Z,12.28
2023-04-07T03:31:54.875Z,12.36
2023-04-07T03:34:25.525Z,12.20
2023-04-07T03:36:53.325Z,12.33
2023-04-07T03:39:21.964Z,12.29
2023-04-07T03:41:52.627Z,12.51
2023-04-07T03:44:20.344Z,12.71
2023-04-07T03:46:50.730Z,12.54
2023-04-07T03:49:20.591Z,12.44
2023-04-07T03:51:50.345Z,12.40
2023-04-07T03:54:19.589Z,12.24
2023-04-07T03:56:47.635Z,12.19
2023-04-07T03:59:19.360Z,12.29
2023-04-07T04:02:13.676Z,12.11
2023-04-07T04:04:41.544Z,12.18
2023-04-07T04:07:10.973Z,12.00
2023-04-07T04:09:43.377Z,12.34
2023-04-07T04:12:12.437Z,12.24
2023-04-07T04:14:47.893Z,12.18
2023-04-07T04:17:17.077Z,12.10
2023-04-07T04:19:47.236Z,11.94
2023-04-07T04:22:38.155Z,11.87
2023-04-07T04:25:05.764Z,11.79
2023-04-07T04:27:33.598Z,11.90
2023-04-07T04:30:09.891Z,12.10
2023-04-07T04:32:47.871Z,12.02
2023-04-07T04:35:17.239Z,11.77
2023-04-07T04:37:55.755Z,11.88
2023-04-07T04:40:23.501Z,12.08
2023-04-07T04:42:52.536Z,11.87
2023-04-07T04:45:22.224Z,11.79
2023-04-07T04:47:51.323Z,11.73
2023-04-07T04:50:19.017Z,11.75
2023-04-07T04:52:47.924Z,11.57
2023-04-07T04:55:22.489Z,11.78
2023-04-07T04:57:51.682Z,11.52
2023-04-07T05:00:26.835Z,11.61
2023-04-07T05:03:01.242Z,11.90
2023-04-07T05:05:28.963Z,11.89
2023-04-07T05:07:58.140Z,11.72
2023-04-07T05:10:30.754Z,11.99
2023-04-07T05:12:58.650Z,11.55
2023-04-07T05:15:26.542Z,11.44
2023-04-07T05:17:55.187Z,11.68
2023-04-07T05:20:27.216Z,11.33
2023-04-07T05:22:56.037Z,11.23
2023-04-07T05:25:29.572Z,11.42
2023-04-07T05:28:00.738Z,11.46
2023-04-07T05:30:28.538Z,11.70
2023-04-07T05:32:56.662Z,11.82
2023-04-07T05:35:37.314Z,11.60
2023-04-07T05:38:05.140Z,11.65
2023-04-07T05:40:34.123Z,11.73
2023-04-07T05:43:04.838Z,11.97
2023-04-07T05:45:34.510Z,11.92
2023-04-07T05:48:02.512Z,12.03
2023-04-07T05:50:41.213Z,12.29
2023-04-07T05:53:13.189Z,12.49
2023-04-07T05:55:44.881Z,12.58
2023-04-07T05:58:40.759Z,12.74
2023-04-07T06:01:10.132Z,12.79
2023-04-07T06:03:38.333Z,12.79
2023-04-07T06:06:19.221Z,13.03
2023-04-07T06:08:47.802Z,13.03
2023-04-07T06:11:15.564Z,13.32
2023-04-07T06:13:43.938Z,13.51
2023-04-07T06:16:11.510Z,13.54
2023-04-07T06:18:39.493Z,13.63
2023-04-07T06:21:07.508Z,13.85
2023-04-07T06:23:35.678Z,13.88
2023-04-07T06:26:10.781Z,14.10
2023-04-07T06:28:38.917Z,14.42
2023-04-07T06:31:07.519Z,14.35
2023-04-07T06:33:37.010Z,14.62
2023-04-07T06:36:04.579Z,14.75
2023-04-07T06:38:32.507Z,14.96
2023-04-07T06:41:00.128Z,15.25
2023-04-07T06:43:27.997Z,15.32
2023-04-07T06:46:01.662Z,15.57
2023-04-07T06:48:29.663Z,15.61
2023-04-07T06:50:57.149Z,15.33
2023-04-07T06:53:24.957Z,15.69
2023-04-07T06:55:52.421Z,16.02
2023-04-07T06:58:20.565Z,16.10
2023-04-07T07:00:48.066Z,16.44
2023-04-07T07:03:16.912Z,16.30
2023-04-07T07:05:44.588Z,16.46
2023-04-07T07:08:12.336Z,16.57
2023-04-07T07:10:39.792Z,16.35
2023-04-07T07:13:07.658Z,16.51
2023-04-07T07:15:35.690Z,16.29
2023-04-07T07:18:03.868Z,16.38
2023-04-07T07:20:31.539Z,16.89
2023-04-07T07:23:00.088Z,16.90
2023-04-07T07:25:28.062Z,16.65
2023-04-07T07:27:56.053Z,16.34
2023-04-07T07:30:24.333Z,16.07
2023-04-07T07:32:53.990Z,16.27
2023-04-07T07:35:22.172Z,16.88
2023-04-07T07:37:50.018Z,16.83
2023-04-07T07:40:18.295Z,17.11
2023-04-07T07:42:46.519Z,17.35
2023-04-07T07:45:14.197Z,17.17
2023-04-07T07:47:42.403Z,17.16
2023-04-07T07:50:10.025Z,17.91
2023-04-07T07:52:37.896Z,16.91
2023-04-07T07:55:05.507Z,17.45
2023-04-07T07:57:33.336Z,17.38
2023-04-07T08:00:01.007Z,16.93
2023-04-07T08:02:31.671Z,17.28
2023-04-07T08:04:59.836Z,17.06
2023-04-07T08:07:27.831Z,17.84
2023-04-07T08:09:55.455Z,18.12
2023-04-07T08:12:23.375Z,17.48
2023-04-07T08:14:51.059Z,17.83
2023-04-07T08:17:18.876Z,17.88
2023-04-07T08:19:46.458Z,17.37
2023-04-07T08:22:14.454Z,17.27
2023-04-07T08:24:42.136Z,17.03
2023-04-07T08:27:09.999Z,16.81
2023-04-07T08:29:37.642Z,17.67
2023-04-07T08:32:05.638Z,17.29
2023-04-07T08:34:33.207Z,17.14
2023-04-07T08:37:01.656Z,17.01
2023-04-07T08:39:29.276Z,16.76
2023-04-07T08:41:58.414Z,16.66
2023-04-07T08:44:28.320Z,16.94
2023-04-07T08:46:58.035Z,17.27
2023-04-07T08:49:29.933Z,18.11
2023-04-07T08:51:59.703Z,17.19
2023-04-07T08:54:27.430Z,17.45
2023-04-07T08:56:55.553Z,18.03
2023-04-07T08:59:26.993Z,18.40
2023-04-07T09:01:55.561Z,18.59
2023-04-07T09:04:24.879Z,17.82
2023-04-07T09:06:52.906Z,17.60
2023-04-07T09:09:20.540Z,18.15
2023-04-07T09:11:48.666Z,18.50
2023-04-07T09:14:16.602Z,18.29
2023-04-07T09:16:44.610Z,18.19
2023-04-07T09:19:12.155Z,18.04
2023-04-07T09:22:06.675Z,18.23
2023-04-07T09:24:34.275Z,18.25
2023-04-07T09:27:14.585Z,17.50
2023-04-07T09:29:44.870Z,18.62
2023-04-07T09:32:14.082Z,19.15
2023-04-07T09:34:41.760Z,19.77
2023-04-07T09:37:22.196Z,20.15
2023-04-07T09:39:50.966Z,20.39
2023-04-07T09:42:18.775Z,19.90
2023-04-07T09:44:46.499Z,20.18
2023-04-07T09:47:14.462Z,20.28
2023-04-07T09:49:50.264Z,20.30
2023-04-07T09:52:20.680Z,19.66
2023-04-07T09:54:49.061Z,19.99
2023-04-07T09:57:18.906Z,20.14
2023-04-07T09:59:48.991Z,19.11
2023-04-07T10:02:17.164Z,19.09
2023-04-07T10:04:44.984Z,19.78
2023-04-07T10:07:13.106Z,20.21
2023-04-07T10:09:40.966Z,20.13
2023-04-07T10:12:08.918Z,19.73
2023-04-07T10:14:37.545Z,19.32
2023-04-07T10:17:08.697Z,19.77
2023-04-07T10:19:36.377Z,20.09
2023-04-07T10:22:06.707Z,19.55
2023-04-07T10:24:52.570Z,19.42
2023-04-07T10:27:22.956Z,19.68
2023-04-07T10:29:52.848Z,18.67
2023-04-07T10:32:20.781Z,18.28
2023-04-07T10:34:57.710Z,17.98
2023-04-07T10:37:26.258Z,18.53
2023-04-07T10:40:14.017Z,17.78
2023-04-07T10:42:42.209Z,18.24
2023-04-07T10:45:09.954Z,17.94
2023-04-07T10:47:52.795Z,18.57
2023-04-07T10:50:21.371Z,18.24
2023-04-07T10:52:50.166Z,18.85
2023-04-07T10:55:33.777Z,18.43
2023-04-07T10:58:21.429Z,18.41
2023-04-07T11:01:01.386Z,18.67
2023-04-07T11:03:30.854Z,19.37
2023-04-07T11:06:06.168Z,19.00
2023-04-07T11:08:35.290Z,19.36
2023-04-07T11:11:03.684Z,19.24
2023-04-07T11:13:40.465Z,18.26
2023-04-07T11:16:09.173Z,19.10
2023-04-07T11:18:37.709Z,19.40
2023-04-07T11:21:08.738Z,19.80
2023-04-07T11:23:41.045Z,19.92
2023-04-07T11:26:10.852Z,20.11
2023-04-07T11:28:49.374Z,20.36
2023-04-07T11:31:24.674Z,19.14
2023-04-07T11:33:56.881Z,19.63
2023-04-07T11:36:42.616Z,19.56
2023-04-07T11:39:21.826Z,20.15
2023-04-07T11:41:50.493Z,19.10
2023-04-07T11:44:18.560Z,18.92
2023-04-07T11:46:59.844Z,19.60
2023-04-07T11:49:28.846Z,19.73
2023-04-07T11:52:01.338Z,19.52
2023-04-07T11:54:52.277Z,19.49
2023-04-07T11:57:27.506Z,20.52
2023-04-07T12:00:12.228Z,20.37
2023-04-07T12:02:40.347Z,21.02
2023-04-07T12:05:10.857Z,20.68
2023-04-07T12:07:38.918Z,21.16
2023-04-07T12:10:36.739Z,21.29
2023-04-07T12:13:04.311Z,21.73
2023-04-07T12:15:32.310Z,22.10
2023-04-07T12:17:59.939Z,22.18
2023-04-07T12:20:27.848Z,22.07
2023-04-07T12:22:55.496Z,21.52
2023-04-07T12:25:23.535Z,21.63
2023-04-07T12:27:51.160Z,19.74
2023-04-07T12:30:19.344Z,19.69
2023-04-07T12:32:47.982Z,19.90
2023-04-07T12:35:16.085Z,19.39
2023-04-07T12:37:43.647Z,19.30
2023-04-07T12:40:11.814Z,19.12
2023-04-07T12:42:39.607Z,19.67
2023-04-07T12:45:07.780Z,18.71
2023-04-07T12:47:35.417Z,18.50
2023-04-07T12:50:03.856Z,18.37
2023-04-07T12:52:32.203Z,18.50
2023-04-07T12:55:00.199Z,18.31
2023-04-07T12:57:27.798Z,18.98
2023-04-07T12:59:55.622Z,19.50
2023-04-07T13:02:23.305Z,18.81
2023-04-07T13:04:51.307Z,18.68
2023-04-07T13:07:19.232Z,18.58
2023-04-07T13:09:47.146Z,18.93
2023-04-07T13:12:14.736Z,19.06
2023-04-07T13:14:53.007Z,18.79
2023-04-07T13:17:25.005Z,18.62
2023-04-07T13:19:52.931Z,18.67
2023-04-07T13:22:22.140Z,19.01
2023-04-07T13:24:51.564Z,18.86
2023-04-07T13:27:19.136Z,18.98
2023-04-07T13:29:47.333Z,19.95
2023-04-07T13:32:16.437Z,19.74
2023-04-07T13:34:44.583Z,19.38
2023-04-07T13:37:12.054Z,18.67
2023-04-07T13:39:39.834Z,18.59
2023-04-07T13:42:07.591Z,18.41
2023-04-07T13:44:37.323Z,19.19
2023-04-07T13:47:05.033Z,18.77
2023-04-07T13:49:32.932Z,18.75
2023-04-07T13:52:00.774Z,18.88
2023-04-07T13:54:28.677Z,19.16
2023-04-07T13:56:56.217Z,19.73
2023-04-07T13:59:24.047Z,20.14
2023-04-07T14:01:51.838Z,20.14
2023-04-07T14:04:19.737Z,19.44
2023-04-07T14:06:47.385Z,19.82
2023-04-07T14:09:15.217Z,19.31
2023-04-07T14:11:42.761Z,19.10
2023-04-07T14:14:10.875Z,18.51
2023-04-07T14:16:38.475Z,18.72
2023-04-07T14:19:07.390Z,18.57
2023-04-07T14:21:34.984Z,18.93
2023-04-07T14:24:02.855Z,19.48
2023-04-07T14:26:30.634Z,18.99
2023-04-07T14:28:58.541Z,19.20
2023-04-07T14:31:26.245Z,18.50
2023-04-07T14:33:54.506Z,18.36
2023-04-07T14:36:22.194Z,18.77
2023-04-07T14:38:51.374Z,18.61
2023-04-07T14:41:20.479Z,18.85
2023-04-07T14:43:52.347Z,19.13
2023-04-07T14:46:21.289Z,18.88
2023-04-07T14:48:49.199Z,18.59
2023-04-07T14:51:16.838Z,18.50
2023-04-07T14:53:45.974Z,19.16
2023-04-07T14:56:13.736Z,18.93
2023-04-07T14:58:41.786Z,19.14
2023-04-07T15:01:09.419Z,18.65
2023-04-07T15:03:37.421Z,19.03
2023-04-07T15:06:08.987Z,18.84
2023-04-07T15:08:37.727Z,18.42
2023-04-07T15:11:08.543Z,18.54
2023-04-07T15:13:36.767Z,18.59
2023-04-07T15:16:11.907Z,18.50
2023-04-07T15:18:44.744Z,18.95
2023-04-07T15:21:12.705Z,18.96
2023-04-07T15:23:42.197Z,18.00
2023-04-07T15:26:10.292Z,18.65
2023-04-07T15:28:38.527Z,18.60
2023-04-07T15:31:09.291Z,18.90
2023-04-07T15:33:38.380Z,18.34
2023-04-07T15:36:06.912Z,17.41
2023-04-07T15:38:35.158Z,17.25
2023-04-07T15:41:02.636Z,17.60
2023-04-07T15:43:30.624Z,17.64
2023-04-07T15:45:58.148Z,18.44
2023-04-07T15:48:26.205Z,18.84
2023-04-07T15:50:53.796Z,19.22
2023-04-07T15:53:21.626Z,19.06
2023-04-07T15:55:49.123Z,19.14
2023-04-07T15:58:17.251Z,19.28
2023-04-07T16:00:45.008Z,19.31
2023-04-07T16:03:13.103Z,19.57
2023-04-07T16:05:40.774Z,19.56
2023-04-07T16:08:08.698Z,19.55
2023-04-07T16:10:36.236Z,19.46
2023-04-07T16:13:04.145Z,19.51
2023-04-07T16:15:39.948Z,19.58
2023-04-07T16:18:10.391Z,19.29
2023-04-07T16:20:38.163Z,19.26
2023-04-07T16:23:06.078Z,19.51
2023-04-07T16:25:33.553Z,19.44
2023-04-07T16:28:01.548Z,19.57
2023-04-07T16:30:29.137Z,19.34
2023-04-07T16:32:57.064Z,19.43
2023-04-07T16:35:24.727Z,18.64
2023-04-07T16:37:54.866Z,18.15
2023-04-07T16:40:22.423Z,18.14
2023-04-07T16:42:50.239Z,17.65
2023-04-07T16:45:17.953Z,17.52
2023-04-07T16:47:45.991Z,17.69
2023-04-07T16:50:13.621Z,17.62
2023-04-07T16:52:41.537Z,17.63
2023-04-07T16:55:09.305Z,17.37
2023-04-07T16:57:37.339Z,17.56
2023-04-07T17:00:06.004Z,17.73
2023-04-07T17:02:34.015Z,17.51
2023-04-07T17:05:01.820Z,17.50
2023-04-07T17:07:29.706Z,17.69
2023-04-07T17:09:57.395Z,17.65
2023-04-07T17:12:26.497Z,17.73
2023-04-07T17:14:54.028Z,17.47
2023-04-07T17:17:21.858Z,17.52
2023-04-07T17:19:49.376Z,17.57
2023-04-07T17:22:17.464Z,17.27
2023-04-07T17:24:46.255Z,17.46
2023-04-07T17:27:14.173Z,17.44
2023-04-07T17:29:41.722Z,17.67
2023-04-07T17:32:10.022Z,17.53
2023-04-07T17:34:37.762Z,17.70
2023-04-07T17:37:05.895Z,17.71
2023-04-07T17:39:33.553Z,17.36
2023-04-07T17:42:01.543Z,17.20
2023-04-07T17:44:31.213Z,17.50
2023-04-07T17:46:59.362Z,17.19
2023-04-07T17:49:26.893Z,17.17
2023-04-07T17:51:55.725Z,17.34
2023-04-07T17:54:23.736Z,17.25
2023-04-07T17:56:51.653Z,17.39
2023-04-07T17:59:19.204Z,17.53
2023-04-07T18:01:47.258Z,17.41
2023-04-07T18:04:15.149Z,17.43
2023-04-07T18:06:44.073Z,17.36
2023-04-07T18:09:11.776Z,17.24
2023-04-07T18:11:39.889Z,17.33
2023-04-07T18:14:07.634Z,17.28
2023-04-07T18:16:35.835Z,17.37
2023-04-07T18:19:03.685Z,17.23
2023-04-07T18:21:31.861Z,17.05
2023-04-07T18:23:59.594Z,17.02
2023-04-07T18:26:27.802Z,16.75
2023-04-07T18:28:55.847Z,16.55
2023-04-07T18:31:24.039Z,16.53
2023-04-07T18:33:51.853Z,16.62
2023-04-07T18:36:22.584Z,16.41
2023-04-07T18:38:50.333Z,15.96
2023-04-07T18:41:19.030Z,16.17
2023-04-07T18:43:47.962Z,16.25
2023-04-07T18:46:16.366Z,15.76
2023-04-07T18:48:44.645Z,15.86
2023-04-07T18:51:12.802Z,15.74
2023-04-07T18:53:40.397Z,15.38
2023-04-07T18:56:08.522Z,15.62
2023-04-07T18:58:44.014Z,15.37
2023-04-07T19:01:13.743Z,15.50
2023-04-07T19:03:42.075Z,15.40
2023-04-07T19:06:15.976Z,15.39
2023-04-07T19:08:43.468Z,15.71
2023-04-07T19:11:11.407Z,15.22
2023-04-07T19:13:39.121Z,15.43
2023-04-07T19:16:08.051Z,15.13
2023-04-07T19:18:36.814Z,15.12
2023-04-07T19:21:04.647Z,15.22
2023-04-07T19:23:32.715Z,14.83
2023-04-07T19:26:01.173Z,14.91
2023-04-07T19:28:28.916Z,15.19
2023-04-07T19:30:57.186Z,15.42
2023-04-07T19:33:24.952Z,15.32
2023-04-07T19:35:52.947Z,15.37
2023-04-07T19:38:20.925Z,15.65
2023-04-07T19:40:49.138Z,15.78
2023-04-07T19:43:17.629Z,15.78
2023-04-07T19:45:46.882Z,15.64
2023-04-07T19:48:14.571Z,15.49
2023-04-07T19:50:44.134Z,15.63
2023-04-07T19:53:16.459Z,15.59
2023-04-07T19:55:48.040Z,15.64
2023-04-07T19:58:19.486Z,15.62
2023-04-07T20:00:49.894Z,15.50
2023-04-07T20:03:17.775Z,15.49
2023-04-07T20:05:45.826Z,15.21
2023-04-07T20:08:13.491Z,15.40
2023-04-07T20:10:41.619Z,15.05
2023-04-07T20:13:09.798Z,14.83
2023-04-07T20:15:37.721Z,14.92
2023-04-07T20:18:05.358Z,15.05
2023-04-07T20:20:33.332Z,15.35
2023-04-07T20:23:00.899Z,15.05
2023-04-07T20:25:28.775Z,15.14
2023-04-07T20:27:56.340Z,15.13
2023-04-07T20:30:24.243Z,15.03
2023-04-07T20:32:51.887Z,14.98
2023-04-07T20:35:19.865Z,14.91
2023-04-07T20:37:47.450Z,14.91
2023-04-07T20:40:15.763Z,14.78
2023-04-07T20:42:43.352Z,14.73
2023-04-07T20:45:12.572Z,14.81
2023-04-07T20:47:40.710Z,14.88
2023-04-07T20:50:09.133Z,14.75
2023-04-07T20:52:40.632Z,14.86
2023-04-07T20:55:08.758Z,14.74
2023-04-07T20:57:36.326Z,14.71
2023-04-07T21:00:05.734Z,14.65
2023-04-07T21:02:33.456Z,14.76
2023-04-07T21:05:01.781Z,14.76
2023-04-07T21:07:29.472Z,14.78
2023-04-07T21:09:57.329Z,14.85
2023-04-07T21:12:24.951Z,14.59
2023-04-07T21:14:52.859Z,14.54
2023-04-07T21:17:20.750Z,14.66
2023-04-07T21:19:48.660Z,14.74
2023-04-07T21:22:16.345Z,14.67
2023-04-07T21:24:44.683Z,14.85
2023-04-07T21:27:12.452Z,14.62
2023-04-07T21:29:43.284Z,14.59
2023-04-07T21:32:11.394Z,14.57
2023-04-07T21:34:39.434Z,14.60
2023-04-07T21:37:07.562Z,14.28
2023-04-07T21:39:35.691Z,14.13
2023-04-07T21:42:03.335Z,14.11
2023-04-07T21:44:31.899Z,14.33
2023-04-07T21:46:59.583Z,14.51
2023-04-07T21:49:27.755Z,14.44
2023-04-07T21:51:55.418Z,14.41
2023-04-07T21:54:23.428Z,14.27
2023-04-07T21:56:52.848Z,13.98
2023-04-07T21:59:20.801Z,14.24
2023-04-07T22:01:48.642Z,13.97
2023-04-07T22:04:16.873Z,14.00
2023-04-07T22:06:44.538Z,13.84
2023-04-07T22:09:12.403Z,13.66
2023-04-07T22:11:40.030Z,13.82
2023-04-07T22:14:07.951Z,13.79
2023-04-07T22:16:35.685Z,13.84
2023-04-07T22:19:03.893Z,13.72
2023-04-07T22:21:31.630Z,13.57
2023-04-07T22:23:59.554Z,13.41
2023-04-07T22:26:27.216Z,13.66
2023-04-07T22:28:55.055Z,13.67
2023-04-07T22:31:22.736Z,13.51
2023-04-07T22:33:53.143Z,13.54
2023-04-07T22:36:20.734Z,13.37
2023-04-07T22:38:48.791Z,13.49
2023-04-07T22:41:16.518Z,13.33
2023-04-07T22:43:44.377Z,13.61
2023-04-07T22:46:11.980Z,13.23
2023-04-07T22:48:39.807Z,13.45
2023-04-07T22:51:07.741Z,13.40
2023-04-07T22:53:35.825Z,13.32
2023-04-07T22:56:03.477Z,13.38
2023-04-07T22:58:31.508Z,13.44
2023-04-07T23:00:59.143Z,13.37
2023-04-07T23:03:27.622Z,13.19
2023-04-07T23:05:55.556Z,13.04
2023-04-07T23:08:23.505Z,12.99
2023-04-07T23:10:51.027Z,12.84
2023-04-07T23:13:19.314Z,12.63
2023-04-07T23:15:46.904Z,12.80
2023-04-07T23:18:14.863Z,12.66
2023-04-07T23:20:43.027Z,12.71
2023-04-07T23:23:11.031Z,12.80
2023-04-07T23:25:38.560Z,12.82
2023-04-07T23:28:06.455Z,13.03
2023-04-07T23:30:34.017Z,12.95
2023-04-07T23:33:01.941Z,13.15
2023-04-07T23:35:29.575Z,12.92
2023-04-07T23:37:57.583Z,12.94
2023-04-07T23:40:25.198Z,12.97
2023-04-07T23:42:53.164Z,13.09
2023-04-07T23:45:20.814Z,12.98
2023-04-07T23:47:48.915Z,12.78
2023-04-07T23:50:16.527Z,12.44
2023-04-07T23:52:44.710Z,12.56
2023-04-07T23:55:12.387Z,12.42
2023-04-07T23:57:40.539Z,12.45
